John Carter

Chief Scout - Fulham
20 Feb 2028
Sunday
Process

Personality

Adaptability (10) Ambition (12) Controversy (10) Loyalty (17) Pressure (5) Professionalism (15) Sportsmanship (6) Temperament (1)

Profile

Coaching Style Democratic
License Continental A
Determination 5
Man Management 7
Motivating 10
Discipline 13
Job Satisfaction
100%
Fatigue
0%
Role Chief Scout
Wage 101.7K p/w
Contract 14.03.2028

Performance

Behaviour Good
Training Effectiveness
50%
Player Development
60%
Injury Prevention
30%
Tactical Implementation
30%

Recent Events

Attended a recruitment meeting now
Attended a recruitment meeting now
Recommended a transfer target now
Recommended a transfer target now
Recommended a transfer target now
Contract negotiation started now
Contract negotiation started now
Contract negotiation started now

Currently Monitoring

213
Player Club Status Ability Confidence Watched Last Observed Latest Vote
Jay Fulton Swansea City Active 116 / 106 83% 1 24.01.2028 Approve
Ayden Heaven Luton Town Active 149 / 155 40% 6 04.01.2028 -
David Valencia Alianza Petrolera Active 129 / 128 40% 3 04.01.2028 -
Igoh Ogbu Porto Active 146 / 146 90% 1 01.01.2028 Approve
Mao Hosoya Everton Negotiating 134 / 135 90% 1 01.01.2028 -
Jorrel Hato Chelsea Active 152 / 151 40% 9 31.12.2027 -
Esquerdinha Shrewsbury Town Active 122 / 123 40% 5 31.12.2027 -
Josh Nichols Tranmere Rovers Active 117 / 122 40% 5 29.12.2027 -
Ronan Kpakio Cardiff City Active 120 / 128 40% 7 29.12.2027 -
Luka Vušković Manchester United Active 145 / 147 40% 5 28.12.2027 -
Christos Mouzakitis Hull City Active 141 / 143 40% 5 28.12.2027 -
Khalis Merah Toulouse FC Active 129 / 143 40% 1 28.12.2027 -
Daniel Banjaqui Benfica Active 122 / 129 40% 4 26.12.2027 -
Tiago Freitas Benfica Active 119 / 129 40% 1 26.12.2027 -
Trey Nyoni Rotherham United Active 136 / 144 40% 9 24.12.2027 -
Josh King Chelsea Active 147 / 149 40% 7 23.12.2027 -
Caleb Yirenkyi Coventry City Active 139 / 144 40% 10 23.12.2027 -
Hervin Goyes Deportivo Pasto Active 101 / 117 40% 7 21.12.2027 -
Tiago Parente Benfica Active 104 / 109 40% 6 20.12.2027 -
Mauro Carrizo Atlético Tucumán Active 100 / 104 40% 7 20.12.2027 -
Alejandro Almaraz Nueva Chicago Active 111 / 126 40% 4 16.12.2027 -
Jofre Torrents Ajax Active 130 / 135 40% 2 16.12.2027 -
Archie Gray Derby County Active 154 / 150 40% 7 13.12.2027 -
Jan Bürger Gillingham Active 112 / 121 40% 3 13.12.2027 -
Giovanni Leoni Bradford City Active 140 / 151 40% 7 12.12.2027 -
Olivier Mambwa Young Boys Active 109 / 121 40% 4 12.12.2027 -
Dmitry Pestryakov Dinamo Moscow Active 111 / 123 40% 4 10.12.2027 -
Ernie Weaver AFC Wimbledon Active 116 / 126 40% 3 09.12.2027 -
Bahia Criciuma Active 107 / 131 40% 10 03.12.2027 -
Joe Johnson Barnet Active 106 / 115 40% 1 01.12.2027 -
Myles Lewis-Skelly Birmingham Active 156 / 151 40% 9 29.11.2027 -
Agustín Obregón River Plate Active 110 / 121 40% 4 26.11.2027 -
Celías Ingenthron Vélez Active 110 / 120 40% 2 25.11.2027 -
Juan Morán Godoy Cruz Active 108 / 122 40% 4 14.11.2027 -
Frankie Westfield Philadelphia Union Active 111 / 101 40% 2 12.11.2027 -
Harrison Armstrong Everton Active 129 / 147 40% 4 09.11.2027 -
Malick Yalcouyé Brighton Active 135 / 128 40% 3 07.11.2027 -
Julián Bazán Philadelphia Union Active 119 / 109 40% 5 01.11.2027 -
Jens Hjertø-Dahl Hull City Active 123 / 126 40% 3 25.10.2027 -
Felipe Obradovich Ferro Carril Oeste Active 102 / 121 40% 2 22.10.2027 -
Nazareno Roselli Defensa y Justicia Active 109 / 128 40% 2 09.10.2027 -
Kaick Minnesota United FC Active 98 / 122 40% 4 08.10.2027 -
Johan Manzambi Newcastle United Active 147 / 144 40% 3 01.10.2027 -
Kosta Nedeljković Aston Villa Active 129 / 141 40% 2 29.09.2027 -
Teo Rodríguez Pagano River Plate Active 124 / 126 40% 2 20.09.2027 -
Eliás Montiel Werder Bremen Active 130 / 141 40% 3 17.09.2027 -
Matthew Litherland Rotherham United Active 117 / 119 40% 1 08.09.2027 -
Brandon Powell Wigan Athletic Active 112 / 128 40% 2 07.09.2027 -
Dayann Methalie Aston Villa Active 132 / 142 40% 1 06.09.2027 -
Santiago Espíndola River Plate Active 102 / 119 40% 1 30.08.2027 -
Thiago Almada AC Milan Lost 145 / 146 69% 1 01.06.2027 -
Nicolas Jackson Aston Villa Active 155 / 143 40% 10 31.05.2027 -
Morgan Whittaker Middlesbrough Active 135 / 138 40% 8 31.05.2027 -
Luis Vázquez Birmingham Active 127 / 136 40% 8 29.05.2027 -
Assane Diao Lazio Active 152 / 144 40% 4 29.05.2027 -
Zian Flemming Ipswich Town Active 135 / 128 40% 2 29.05.2027 -
Iwan Morgan Grimsby Town Active 114 / 123 40% 1 29.05.2027 -
Tom Cannon Sheffield United Active 124 / 137 40% 6 27.05.2027 -
Evidence Makgopa Orlando Pirates Active 114 / 112 40% 4 27.05.2027 -
Oli McBurnie Hull City Active 141 / 133 40% 4 25.05.2027 -
Dango Ouattara Brentford Active 143 / 152 40% 14 24.05.2027 -
Taty Castellanos West Ham United Active 145 / 142 40% 4 24.05.2027 -
Bojan Radulović Huddersfield Town Active 119 / 110 40% 2 24.05.2027 -
Murphy Cooper Plymouth Argyle Active 116 / 120 40% 2 21.05.2027 -
Elia Boseggia Novara Active 113 / 116 40% 1 21.05.2027 -
Richard Koné Queens Park Rangers Active 123 / 121 40% 5 18.05.2027 -
Themba Ngcobo SuperSport United Active 123 / 111 40% 6 17.05.2027 -
Patson Daka Leicester City Active 131 / 124 40% 4 17.05.2027 -
Callum O'Hare Sheffield United Active 128 / 131 40% 5 16.05.2027 -
Thiago Brentford Active 154 / 154 40% 13 14.05.2027 -
Yousef Salech Cardiff City Active 127 / 121 40% 8 13.05.2027 -
Lewis Morgan SuperSport United Active 129 / 130 40% 5 12.05.2027 -
Luis Ingolotti Atlético Tucumán Active 129 / 127 40% 1 12.05.2027 -
Cristopher Varela Deportivo La Guaira Active 118 / 118 40% 1 12.05.2027 -
Alexandr Koryakin Krasnodar Active 109 / 120 40% 1 12.05.2027 -
Elijah Adebayo Luton Town Active 123 / 115 40% 4 10.05.2027 -
Will Lankshear Middlesbrough Active 129 / 126 40% 4 10.05.2027 -
Tommy Conway Middlesbrough Active 133 / 123 40% 4 08.05.2027 -
Georginio Rutter Brighton Active 146 / 149 40% 12 06.05.2027 -
Andrea Pinamonti Lazio Active 144 / 138 40% 5 06.05.2027 -
Giacomo Raspadori Atalanta Active 153 / 140 40% 11 04.05.2027 -
Mandla Mahlangu Ajax Cape Town Active 113 / 108 40% 3 30.04.2027 -
Dom Ballard Leyton Orient Active 124 / 123 40% 5 30.04.2027 -
Keinan Davis Udinese Active 135 / 126 40% 3 27.04.2027 -
Joe Gelhardt Hull City Active 129 / 134 40% 3 24.04.2027 -
Kwame Opoku Asante Kotoko Active 100 / 103 40% 3 21.04.2027 -
Tammy Abraham Aston Villa Active 140 / 142 40% 3 19.04.2027 -
Robin Roefs Sunderland Active 146 / 144 40% 1 19.04.2027 -
Brayan León Mamelodi Sundowns Active 118 / 113 40% 3 10.04.2027 -
Kelvin Obeng Medeama Active 85 / 83 40% 2 08.04.2027 -
Aaron Collins Milton Keynes Dons Active 117 / 116 40% 1 08.04.2027 -
Niall Ennis Blackpool Active 116 / 109 40% 1 08.04.2027 -
Mees Rijks Bristol Rovers Active 115 / 117 40% 2 07.04.2027 -
Aune Heggebø West Bromwich Albion Active 133 / 132 40% 3 05.04.2027 -
Zeki Amdouni Burnley Active 130 / 127 40% 2 03.04.2027 -
Edoardo Motta Lazio Active 124 / 122 40% 1 03.04.2027 -
Fedor Lapoukhov CSKA Sofia Active 118 / 126 40% 1 03.04.2027 -
Isaac Essien WAFA Active 97 / 105 40% 2 31.03.2027 -
Tyreece Campbell Charlton Athletic Active 121 / 128 40% 1 31.03.2027 -
Moussa Dembélé CR Belouizdad Active 130 / 126 40% 2 28.03.2027 -
Wilson Isidor Sunderland Active 132 / 143 40% 1 26.03.2027 -
Lorent Tolaj Plymouth Argyle Active 123 / 116 40% 3 25.03.2027 -
Bongani Mothiba SuperSport United Active 88 / 88 40% 1 21.03.2027 -
Robert Mizo Ashanti Gold Active 101 / 107 40% 1 20.03.2027 -
Etiosa Ighodaro Kaizer Chiefs Active 118 / 108 40% 1 20.03.2027 -
Mateo Pellegrino Fiorentina Active 134 / 144 40% 3 17.03.2027 -
Tyrese Campbell Sheffield United Active 128 / 122 40% 3 14.03.2027 -
Ilyas Ansah Hull City Active 126 / 128 40% 2 11.03.2027 -
Lukáš Horníček Newcastle United Active 143 / 144 40% 1 11.03.2027 -
Santiago Silva CFR Cluj Active 131 / 123 40% 1 11.03.2027 -
Mohammed Yahaya Great Olympics Active 88 / 78 40% 2 08.03.2027 -
Leopold Wahlstedt Rosenborg Active 123 / 117 40% 1 04.03.2027 -
Jarrod Bowen West Ham United Active 149 / 150 40% 2 03.03.2027 -
Rhian Brewster Oxford United Active 116 / 128 40% 1 23.02.2027 -
Lukas Jensen Millwall Active 126 / 116 40% 1 20.02.2027 -
Gianluca Saro Foggia Active 115 / 114 40% 1 09.02.2027 -
Diogo Costa Manchester City Active 158 / 157 40% 1 09.02.2027 -
Kyrylo Fesiun Shakhtar Active 125 / 116 40% 1 09.02.2027 -
Donyell Malen AS Roma Active 154 / 146 40% 1 07.02.2027 -
Luciano Gondou CSKA Moscow Active 126 / 124 40% 1 07.02.2027 -
Iliman N'Diaye Everton Active 164 / 159 40% 5 02.02.2027 -
Jean-Philippe Mateta Crystal Palace Active 145 / 149 40% 1 25.01.2027 -
Enzo Barrenechea Betis Active 147 / 148 91% 1 18.01.2027 Approve
Gonçalo Inácio Sporting CP Lost 147 / 148 91% 1 01.01.2027 Approve
Hakim Sulemana Medeama Active 104 / 110 40% 1 24.12.2026 -
Mandla Erasmus SuperSport United Active 122 / 119 40% 2 23.12.2026 -
Gabriel Martinelli Brighton Active 171 / 157 40% 3 22.12.2026 -
Quinten Timber Crystal Palace Active 145 / 144 40% 2 22.12.2026 -
Itumeleng Zungu Free State Stars Active 100 / 95 40% 1 21.12.2026 -
Thabang Matuludi Polokwane City Active 105 / 111 40% 1 20.12.2026 -
Tyler Adams Bournemouth Active 147 / 153 40% 1 20.12.2026 -
Williams Manyama SuperSport United Active 111 / 124 40% 4 19.12.2026 -
Marcelo Allende Mamelodi Sundowns Active 126 / 130 40% 6 19.12.2026 -
Simon Ramabu Polokwane City Active 110 / 111 40% 2 18.12.2026 -
Isaiah Jones Luton Town Active 125 / 124 40% 2 18.12.2026 -
Sayfallah Ltaief Cracovia Active 127 / 116 40% 1 17.12.2026 -
Tom Fellows Southampton Active 127 / 125 40% 1 17.12.2026 -
Daniel Kyerewaa Reading Active 113 / 109 40% 2 15.12.2026 -
Siyanda Ndlovu Bloemfontein Celtic Active 116 / 117 40% 4 14.12.2026 -
Ollie Tanner Cardiff City Active 112 / 121 40% 1 14.12.2026 -
Curtis Jones Inter Active 155 / 152 40% 2 13.12.2026 -
Carlos Vicente Birmingham Active 150 / 139 40% 5 11.12.2026 Monitor
Mikkel Damsgaard Brentford Active 150 / 149 40% 1 09.12.2026 -
Mduduzi Shabalala Kaizer Chiefs Active 113 / 114 40% 3 07.12.2026 -
Tshepang Moremi Orlando Pirates Active 120 / 111 40% 2 03.12.2026 -
Mats Wieffer Brighton Active 144 / 152 40% 1 01.12.2026 -
Marquinhos Spartak Moscow Active 129 / 127 40% 1 01.12.2026 -
Facundo Mura Inter Miami CF Active 131 / 116 40% 6 30.11.2026 -
Reda Khadra Qarabag Active 130 / 132 40% 1 29.11.2026 -
Thalente Mbatha Orlando Pirates Active 113 / 110 40% 3 28.11.2026 -
Callum Hudson-Odoi Nottingham Forest Active 153 / 142 40% 3 28.11.2026 -
Jadon Sancho Manchester United Active 155 / 149 40% 2 27.11.2026 -
Matt O'Riley Brighton Active 144 / 145 40% 1 24.11.2026 -
Ian Maatsen Aston Villa Active 152 / 152 40% 1 23.11.2026 -
Nico González Newcastle United Active 159 / 156 40% 1 23.11.2026 -
Nico O'Reilly Manchester City Active 153 / 159 40% 1 23.11.2026 -
Oumar Solet Udinese Active 145 / 150 40% 1 20.11.2026 -
Pedro Porro Tottenham Active 152 / 139 40% 1 20.11.2026 -
Ferdi Kadıoğlu Brighton Active 152 / 154 40% 1 18.11.2026 -
Alessandro Bastoni Inter Active 165 / 156 40% 1 18.11.2026 -
Sandro Tonali Tottenham Active 170 / 177 40% 4 15.11.2026 -
Sven Botman Newcastle United Active 154 / 155 40% 1 15.11.2026 -
Nathan Collins Brentford Active 149 / 150 40% 1 15.11.2026 -
Xavi Simons Tottenham Active 155 / 150 40% 3 13.11.2026 -
Diogo Dalot Manchester United Active 146 / 145 40% 1 13.11.2026 -
Tino Livramento Newcastle United Active 156 / 150 40% 1 10.11.2026 -
Matías Soulé AS Roma Active 158 / 163 40% 1 09.11.2026 -
Antonio Galeano Remo Stars Active 124 / 115 40% 3 08.11.2026 -
Griffin Yow New England Revolution Active 125 / 122 40% 1 08.11.2026 -
Elias Achouri San Diego Football Club Active 138 / 139 40% 3 06.11.2026 -
Bénie Traoré New York City Active 125 / 119 40% 3 06.11.2026 -
Alessandro Buongiorno Sassuolo Active 158 / 152 40% 1 06.11.2026 -
Rayan Aït-Nouri Manchester City Active 143 / 145 40% 1 06.11.2026 -
Pierre Kalulu Juventus Active 159 / 157 40% 1 04.11.2026 -
Othmane Maamma Watford Active 118 / 133 40% 1 03.11.2026 -
Santiago Rodríguez Columbus Crew Active 119 / 121 40% 3 30.10.2026 -
Djordje Mihailović Toronto FC Active 130 / 126 40% 2 28.10.2026 -
Joaquín Pereyra Minnesota United FC Active 133 / 127 40% 4 26.10.2026 -
Duncan McGuire Houston Dynamo Active 122 / 114 40% 1 23.10.2026 -
Amadou Onana Aston Villa Active 148 / 147 40% 1 17.10.2026 -
Braian Ojeda Orlando City Active 132 / 114 40% 1 16.10.2026 -
Agustín Anello Philadelphia Union Active 133 / 115 40% 3 14.10.2026 -
Jacob Ramsey Newcastle United Active 145 / 154 40% 1 13.10.2026 -
Bongani Modiba Black Aces Active 115 / 117 40% 2 12.10.2026 -
Kimito Nono Sanfrecce Hiroshima Active 118 / 120 40% 1 12.10.2026 -
Alhassan Yusuf New England Revolution Active 131 / 134 40% 1 10.10.2026 -
James Sands New York City Active 118 / 122 40% 2 09.10.2026 -
David Da Costa Portland Timbers Active 136 / 119 40% 1 08.10.2026 -
Hannes Wolf New York City Active 115 / 127 40% 2 07.10.2026 -
Daniel Kelly Oxford United Active 103 / 121 40% 1 07.10.2026 -
Yaimar Medina Racing Genk Active 117 / 125 40% 1 07.10.2026 -
Gabriel Pirani San Diego Football Club Active 132 / 134 40% 1 05.10.2026 -
Telasco Segovia Inter Miami CF Active 131 / 136 40% 1 05.10.2026 -
Reed Baker-Whiting Nashville SC Active 108 / 103 40% 1 05.10.2026 -
Dagur Dan Þórhallsson CF Montreal Active 125 / 124 40% 1 03.10.2026 -
Lasse Berg Johnsen Sporting Kansas City Active 133 / 133 40% 1 01.10.2026 -
Jahkeele Marshall-Rutty New York Red Bulls Active 110 / 117 40% 1 29.09.2026 -
Lukas Engel Real Salt Lake Active 116 / 116 40% 2 28.09.2026 -
Tadeo Allende Inter Miami CF Active 123 / 118 40% 1 28.09.2026 -
Marco Pašalić Orlando City Active 135 / 120 40% 1 26.09.2026 -
Andrés Herrera Columbus Crew Active 128 / 131 40% 1 25.09.2026 -
Theo Corbeanu Toronto FC Active 124 / 119 40% 1 22.09.2026 -
Samuel Anakwe Remo Stars Active 85 / 95 40% 1 18.09.2026 -
Martín Ojeda Orlando City Active 130 / 132 40% 2 17.09.2026 -
Jeong Sang-Bin St. Louis CITY SC Active 121 / 119 40% 2 16.09.2026 -
Conrad Wallem Austria Wien Active 130 / 133 40% 2 13.09.2026 -
Anzor Mekvabishvili Chicago Fire Active 115 / 117 40% 1 12.09.2026 -
Onni Valakari San Diego Football Club Active 117 / 117 40% 1 11.09.2026 -
Simphiwe Selepe Orlando Pirates Active 107 / 115 40% 1 11.09.2026 -
Mbekezeli Mbokazi Chicago Fire Active 121 / 117 40% 1 11.09.2026 -
Cody Gakpo Liverpool Active 154 / 163 40% 1 24.08.2026 -
Guilherme Ankaragucu Active 134 / 124 40% 1 24.08.2026 -
Derrick Etienne Jr. Toronto FC Active 113 / 107 40% 1 02.08.2026 -